Time;durP1;ratioP1;P1;durP2;ratioP2;P2;SDS_P1;SDS_P2;PMS_P1;PMS_P2;Temp;Humidity;BMP_temperature;BMP_pressure;BME280_temperature;BME280_humidity;BME280_pressure;Samples;Min_cycle;Max_cycle;Signal;HPM_P1;HPM_P2
2021/08/17 00:01:28;;;;;;;26.40;3.35;;;;;;;;;;4983965;28;20030;-60
2021/08/17 00:03:54;;;;;;;19.52;3.08;;;;;;;;;;5001731;28;20068;-59
2021/08/17 00:06:22;;;;;;;11.32;2.78;;;;;;;;;;4985006;28;20984;-59
2021/08/17 00:08:47;;;;;;;23.77;3.38;;;;;;;;;;4984584;28;20052;-60
2021/08/17 00:11:15;;;;;;;19.95;3.00;;;;;;;;;;5003378;28;20033;-60
2021/08/17 00:13:42;;;;;;;22.92;3.35;;;;;;;;;;5002887;28;20036;-60
2021/08/17 00:16:12;;;;;;;16.15;2.72;;;;;;;;;;5002654;28;20034;-60
2021/08/17 00:18:38;;;;;;;26.42;3.97;;;;;;;;;;5003955;28;20040;-60
2021/08/17 00:21:07;;;;;;;18.13;3.60;;;;;;;;;;5002249;28;20025;-60
2021/08/17 00:23:36;;;;;;;13.73;2.90;;;;;;;;;;5003032;28;20103;-60
2021/08/17 00:26:06;;;;;;;18.55;2.60;;;;;;;;;;4983014;28;20033;-60
2021/08/17 00:28:32;;;;;;;17.70;2.60;;;;;;;;;;4987419;28;21052;-61
2021/08/17 00:30:59;;;;;;;25.75;3.67;;;;;;;;;;5003260;28;20030;-63
2021/08/17 00:33:27;;;;;;;17.83;3.08;;;;;;;;;;4969906;28;20042;-60
2021/08/17 00:35:53;;;;;;;16.60;2.63;;;;;;;;;;4985956;28;20028;-59
2021/08/17 00:38:19;;;;;;;18.27;2.60;;;;;;;;;;4985382;28;21921;-60
2021/08/17 00:40:45;;;;;;;15.18;2.17;;;;;;;;;;5001105;28;20025;-60
2021/08/17 00:43:10;;;;;;;12.43;3.08;;;;;;;;;;4987598;28;22328;-58
2021/08/17 00:45:36;;;;;;;11.88;2.55;;;;;;;;;;5004283;28;20033;-60
2021/08/17 00:48:02;;;;;;;9.55;3.08;;;;;;;;;;4970512;28;20132;-59
2021/08/17 00:50:30;;;;;;;16.80;2.95;;;;;;;;;;5003630;28;20030;-61
2021/08/17 00:52:56;;;;;;;15.88;2.85;;;;;;;;;;5001759;28;20029;-59
2021/08/17 00:55:22;;;;;;;19.05;2.22;;;;;;;;;;5001815;28;20040;-59
2021/08/17 00:57:48;;;;;;;14.18;2.53;;;;;;;;;;4985616;28;20116;-59
2021/08/17 01:00:18;;;;;;;16.08;2.00;;;;;;;;;;5002299;28;20029;-60
2021/08/17 01:02:47;;;;;;;16.10;2.40;;;;;;;;;;5001308;28;20488;-59
2021/08/17 01:05:14;;;;;;;15.45;2.28;;;;;;;;;;5005329;28;20083;-59
2021/08/17 01:07:40;;;;;;;18.63;2.47;;;;;;;;;;4987670;28;20409;-58
2021/08/17 01:10:09;;;;;;;21.17;2.72;;;;;;;;;;4995483;28;20473;-61
2021/08/17 01:12:35;;;;;;;13.00;2.25;;;;;;;;;;4989678;28;20034;-60
2021/08/17 01:15:02;;;;;;;17.63;3.00;;;;;;;;;;5005638;28;20401;-59
2021/08/17 01:17:29;;;;;;;10.55;2.40;;;;;;;;;;5001291;28;20037;-58
2021/08/17 01:19:55;;;;;;;14.60;2.67;;;;;;;;;;5004835;28;20044;-59
2021/08/17 01:22:20;;;;;;;12.98;1.95;;;;;;;;;;4974087;28;20045;-59
2021/08/17 01:24:46;;;;;;;12.93;2.42;;;;;;;;;;5005243;28;20030;-59
2021/08/17 01:27:13;;;;;;;17.92;3.55;;;;;;;;;;4992575;28;20057;-59
2021/08/17 01:29:46;;;;;;;7.70;2.13;;;;;;;;;;5005848;28;20030;-59
2021/08/17 01:32:19;;;;;;;23.40;2.50;;;;;;;;;;5002043;28;20037;-59
2021/08/17 01:34:47;;;;;;;12.50;2.15;;;;;;;;;;5005077;28;20117;-60
2021/08/17 01:37:15;;;;;;;10.85;2.85;;;;;;;;;;5002715;28;20022;-60
2021/08/17 01:39:40;;;;;;;11.18;2.75;;;;;;;;;;5003793;28;20045;-60
2021/08/17 01:42:06;;;;;;;11.82;2.83;;;;;;;;;;5005100;28;20053;-60
2021/08/17 01:44:34;;;;;;;12.32;2.95;;;;;;;;;;5004326;28;20030;-59
2021/08/17 01:47:00;;;;;;;10.15;2.60;;;;;;;;;;5003109;28;20148;-60
2021/08/17 01:49:28;;;;;;;24.40;2.53;;;;;;;;;;4984860;28;20041;-59
2021/08/17 01:51:55;;;;;;;16.42;2.90;;;;;;;;;;4986877;28;20034;-60
2021/08/17 01:54:21;;;;;;;16.58;2.13;;;;;;;;;;4984053;28;20057;-61
2021/08/17 01:56:47;;;;;;;11.48;2.80;;;;;;;;;;4986139;28;20032;-59
2021/08/17 01:59:13;;;;;;;15.27;2.60;;;;;;;;;;5005569;28;20053;-58
2021/08/17 02:01:43;;;;;;;18.38;2.47;;;;;;;;;;5003888;28;20029;-58
2021/08/17 02:04:11;;;;;;;11.98;2.03;;;;;;;;;;4986696;28;20144;-59
2021/08/17 02:06:41;;;;;;;20.33;3.10;;;;;;;;;;4989449;28;21099;-59
2021/08/17 02:09:09;;;;;;;13.15;2.03;;;;;;;;;;4987317;28;20426;-60
2021/08/17 02:11:39;;;;;;;16.13;2.25;;;;;;;;;;5004897;28;20049;-59
2021/08/17 02:14:05;;;;;;;15.63;3.35;;;;;;;;;;5005123;28;20519;-61
2021/08/17 02:16:33;;;;;;;13.25;2.15;;;;;;;;;;4987576;28;20025;-60
2021/08/17 02:19:03;;;;;;;15.02;2.70;;;;;;;;;;4987155;28;20061;-59
2021/08/17 02:21:29;;;;;;;7.00;1.90;;;;;;;;;;5002520;28;20037;-60
2021/08/17 02:23:54;;;;;;;21.48;2.65;;;;;;;;;;4985879;28;20695;-60
2021/08/17 02:26:20;;;;;;;19.00;2.80;;;;;;;;;;4996671;28;20042;-60
2021/08/17 02:28:45;;;;;;;11.27;2.15;;;;;;;;;;4980364;28;20049;-60
2021/08/17 02:31:10;;;;;;;17.42;2.53;;;;;;;;;;5003207;28;20037;-59
2021/08/17 02:33:36;;;;;;;12.75;3.38;;;;;;;;;;4985670;28;20456;-61
2021/08/17 02:36:01;;;;;;;13.93;2.45;;;;;;;;;;4988139;28;20037;-59
2021/08/17 02:38:27;;;;;;;12.88;2.25;;;;;;;;;;5005453;28;20017;-59
2021/08/17 02:40:55;;;;;;;11.30;2.40;;;;;;;;;;4988778;28;20128;-60
2021/08/17 02:43:24;;;;;;;18.92;2.42;;;;;;;;;;5004216;28;20029;-60
2021/08/17 02:45:51;;;;;;;11.80;2.03;;;;;;;;;;5002687;28;20068;-60
2021/08/17 02:48:19;;;;;;;10.20;2.17;;;;;;;;;;5002424;28;20085;-59
2021/08/17 02:50:48;;;;;;;10.93;2.13;;;;;;;;;;4985305;28;20084;-60
2021/08/17 02:53:16;;;;;;;19.67;3.00;;;;;;;;;;5003824;28;20164;-60
2021/08/17 02:55:44;;;;;;;6.72;2.17;;;;;;;;;;5002112;28;20080;-59
2021/08/17 02:58:10;;;;;;;12.10;2.42;;;;;;;;;;4987466;28;20555;-59
2021/08/17 03:00:39;;;;;;;16.27;2.63;;;;;;;;;;4999635;28;20028;-59
2021/08/17 03:03:04;;;;;;;11.43;2.28;;;;;;;;;;5001215;28;20083;-62
2021/08/17 03:05:30;;;;;;;10.60;2.42;;;;;;;;;;5002356;28;20045;-59
2021/08/17 03:08:03;;;;;;;11.85;1.90;;;;;;;;;;5004225;28;20032;-59
2021/08/17 03:10:29;;;;;;;13.70;1.83;;;;;;;;;;4989830;28;20065;-59
2021/08/17 03:12:57;;;;;;;12.63;2.28;;;;;;;;;;5003612;28;20142;-59
2021/08/17 03:15:25;;;;;;;13.55;2.10;;;;;;;;;;4990258;28;20041;-59
2021/08/17 03:17:50;;;;;;;12.23;1.90;;;;;;;;;;4984628;28;20144;-59
2021/08/17 03:20:16;;;;;;;8.48;2.38;;;;;;;;;;5005294;28;20575;-59
2021/08/17 03:22:42;;;;;;;10.73;2.10;;;;;;;;;;4987331;28;20088;-59
2021/08/17 03:25:10;;;;;;;11.52;1.88;;;;;;;;;;4987759;28;20033;-60
2021/08/17 03:27:39;;;;;;;11.32;1.98;;;;;;;;;;5002166;28;20041;-59
2021/08/17 03:30:09;;;;;;;10.13;2.20;;;;;;;;;;5003049;28;20457;-59
2021/08/17 03:32:34;;;;;;;19.02;2.03;;;;;;;;;;4987828;28;20034;-59
2021/08/17 03:35:00;;;;;;;10.63;1.95;;;;;;;;;;5003482;28;20120;-58
2021/08/17 03:37:26;;;;;;;11.45;1.63;;;;;;;;;;4984798;28;20025;-59
2021/08/17 03:39:52;;;;;;;11.00;2.22;;;;;;;;;;5003325;28;20036;-60
2021/08/17 03:42:20;;;;;;;12.60;2.00;;;;;;;;;;4992947;28;20101;-60
2021/08/17 03:44:46;;;;;;;12.05;1.90;;;;;;;;;;5002040;28;20092;-59
2021/08/17 03:47:14;;;;;;;17.50;2.58;;;;;;;;;;5000619;28;20034;-59
2021/08/17 03:49:40;;;;;;;10.95;1.90;;;;;;;;;;4970412;28;20535;-60
2021/08/17 03:52:06;;;;;;;7.55;1.73;;;;;;;;;;5003628;28;20096;-59
2021/08/17 03:54:34;;;;;;;7.97;1.92;;;;;;;;;;4987265;28;20203;-60
2021/08/17 03:57:00;;;;;;;7.72;1.90;;;;;;;;;;5002871;28;20123;-60
2021/08/17 03:59:27;;;;;;;16.20;2.20;;;;;;;;;;4986435;28;20049;-59
2021/08/17 04:01:53;;;;;;;11.25;1.67;;;;;;;;;;5002331;28;20744;-60
2021/08/17 04:04:24;;;;;;;12.02;1.38;;;;;;;;;;4982040;28;20037;-59
2021/08/17 04:06:49;;;;;;;16.42;1.88;;;;;;;;;;4983194;28;20096;-60
2021/08/17 04:09:17;;;;;;;6.03;1.95;;;;;;;;;;5003706;28;20137;-60
2021/08/17 04:11:45;;;;;;;12.00;2.08;;;;;;;;;;5000710;28;20108;-59
2021/08/17 04:14:13;;;;;;;12.60;1.52;;;;;;;;;;5002805;28;20071;-59
2021/08/17 04:16:41;;;;;;;12.95;1.85;;;;;;;;;;4988867;28;20025;-59
2021/08/17 04:19:06;;;;;;;8.07;2.00;;;;;;;;;;5002555;28;20536;-61
2021/08/17 04:21:32;;;;;;;11.60;1.95;;;;;;;;;;5004514;28;20788;-59
2021/08/17 04:24:00;;;;;;;6.22;1.50;;;;;;;;;;5001981;28;20036;-60
2021/08/17 04:26:28;;;;;;;12.48;2.17;;;;;;;;;;5001299;28;20096;-60
2021/08/17 04:28:53;;;;;;;9.63;2.00;;;;;;;;;;5000849;28;20156;-60
2021/08/17 04:31:19;;;;;;;5.55;1.58;;;;;;;;;;4981572;28;20040;-59
2021/08/17 04:33:52;;;;;;;14.00;1.98;;;;;;;;;;5002465;28;20030;-60
2021/08/17 04:36:18;;;;;;;13.27;1.88;;;;;;;;;;5002775;28;20128;-60
2021/08/17 04:38:46;;;;;;;14.65;2.20;;;;;;;;;;5001766;28;20041;-59
2021/08/17 04:41:14;;;;;;;8.70;1.90;;;;;;;;;;5002528;28;20061;-59
2021/08/17 04:43:41;;;;;;;7.25;1.83;;;;;;;;;;4985199;28;20054;-59
2021/08/17 04:46:09;;;;;;;14.77;2.28;;;;;;;;;;4987493;28;20112;-59
2021/08/17 04:48:39;;;;;;;12.77;1.90;;;;;;;;;;4985675;28;20865;-59
2021/08/17 04:51:09;;;;;;;14.93;2.38;;;;;;;;;;4971107;28;20061;-59
2021/08/17 04:53:38;;;;;;;12.90;2.05;;;;;;;;;;4990067;28;20462;-59
2021/08/17 04:56:05;;;;;;;13.43;1.80;;;;;;;;;;5002550;28;20040;-59
2021/08/17 04:58:36;;;;;;;11.43;2.13;;;;;;;;;;4984473;28;20164;-59
2021/08/17 05:01:04;;;;;;;10.57;1.90;;;;;;;;;;4997849;28;20033;-59
2021/08/17 05:03:34;;;;;;;7.07;1.58;;;;;;;;;;4986858;28;20038;-59
2021/08/17 05:06:07;;;;;;;22.42;2.65;;;;;;;;;;5001287;28;20034;-60
2021/08/17 05:08:37;;;;;;;14.38;2.25;;;;;;;;;;4988425;28;20038;-59
2021/08/17 05:11:05;;;;;;;13.73;2.28;;;;;;;;;;4988435;28;21054;-59
2021/08/17 05:13:30;;;;;;;11.13;2.58;;;;;;;;;;5001788;28;20041;-59
2021/08/17 05:15:56;;;;;;;10.25;2.53;;;;;;;;;;4986958;28;20139;-59
2021/08/17 05:18:24;;;;;;;10.35;2.80;;;;;;;;;;4988872;28;20061;-60
2021/08/17 05:20:50;;;;;;;13.60;2.05;;;;;;;;;;4981972;28;20107;-58
2021/08/17 05:23:17;;;;;;;10.02;2.50;;;;;;;;;;4987477;28;20038;-59
2021/08/17 05:25:42;;;;;;;10.77;2.67;;;;;;;;;;4984213;28;20052;-60
2021/08/17 05:28:08;;;;;;;11.38;2.60;;;;;;;;;;4985605;28;20087;-59
2021/08/17 05:30:33;;;;;;;10.63;2.10;;;;;;;;;;4983739;28;21045;-59
2021/08/17 05:33:01;;;;;;;11.10;2.22;;;;;;;;;;4999159;28;20036;-59
2021/08/17 05:35:27;;;;;;;15.68;2.55;;;;;;;;;;4955890;28;20718;-59
2021/08/17 05:37:54;;;;;;;9.77;2.25;;;;;;;;;;5002227;28;20139;-58
2021/08/17 05:40:22;;;;;;;9.68;2.25;;;;;;;;;;5000636;28;20030;-58
2021/08/17 05:42:48;;;;;;;17.73;2.45;;;;;;;;;;4983213;28;20041;-60
2021/08/17 05:45:16;;;;;;;14.18;2.35;;;;;;;;;;5000240;28;20037;-59
2021/08/17 05:47:47;;;;;;;20.10;3.15;;;;;;;;;;4982758;28;20744;-59
2021/08/17 05:50:13;;;;;;;18.65;2.90;;;;;;;;;;4987017;28;20395;-60
2021/08/17 05:52:39;;;;;;;13.40;2.90;;;;;;;;;;5003557;28;20032;-59
2021/08/17 05:55:05;;;;;;;7.57;2.90;;;;;;;;;;4986433;28;20033;-59
2021/08/17 05:57:31;;;;;;;9.18;2.85;;;;;;;;;;5004720;28;20127;-59
2021/08/17 05:59:58;;;;;;;13.02;3.08;;;;;;;;;;4986100;28;20037;-60
2021/08/17 06:02:24;;;;;;;17.10;3.45;;;;;;;;;;4988421;28;20022;-59
2021/08/17 06:04:50;;;;;;;11.48;2.47;;;;;;;;;;5003082;28;20030;-59
2021/08/17 06:07:17;;;;;;;16.83;3.35;;;;;;;;;;4987461;28;20136;-59
2021/08/17 06:09:45;;;;;;;17.25;2.83;;;;;;;;;;4970317;28;20033;-59
2021/08/17 06:12:15;;;;;;;16.35;3.47;;;;;;;;;;5004902;28;20457;-59
2021/08/17 06:14:43;;;;;;;10.93;2.90;;;;;;;;;;4989988;28;20049;-59
2021/08/17 06:17:10;;;;;;;12.82;2.88;;;;;;;;;;5003912;28;20049;-59
2021/08/17 06:19:39;;;;;;;13.32;3.08;;;;;;;;;;4991195;28;20171;-60
2021/08/17 06:22:07;;;;;;;8.65;2.75;;;;;;;;;;5003837;28;20026;-61
2021/08/17 06:24:32;;;;;;;12.60;3.58;;;;;;;;;;4958063;28;20090;-59
2021/08/17 06:27:01;;;;;;;14.25;3.30;;;;;;;;;;5003819;28;20082;-59
2021/08/17 06:29:26;;;;;;;7.43;2.35;;;;;;;;;;4981971;28;20170;-60
2021/08/17 06:31:56;;;;;;;18.25;3.55;;;;;;;;;;5005358;28;20029;-61
2021/08/17 06:34:22;;;;;;;14.85;3.72;;;;;;;;;;5003958;28;20121;-59
2021/08/17 06:36:52;;;;;;;13.50;3.10;;;;;;;;;;5003151;28;20021;-59
2021/08/17 06:39:22;;;;;;;12.00;3.28;;;;;;;;;;4975781;28;20116;-60
2021/08/17 06:41:53;;;;;;;12.65;3.30;;;;;;;;;;5001550;28;21970;-60
2021/08/17 06:44:18;;;;;;;10.63;2.78;;;;;;;;;;4987623;28;20078;-60
2021/08/17 06:46:46;;;;;;;13.55;2.92;;;;;;;;;;5003968;28;20104;-60
2021/08/17 06:49:12;;;;;;;11.57;3.15;;;;;;;;;;5003785;28;20053;-63
2021/08/17 06:51:38;;;;;;;14.40;3.00;;;;;;;;;;5004324;28;20070;-60
2021/08/17 06:54:18;;;;;;;12.60;3.30;;;;;;;;;;4989055;28;21111;-62
2021/08/17 06:56:43;;;;;;;10.88;2.67;;;;;;;;;;5002611;28;20045;-60
2021/08/17 06:59:11;;;;;;;9.07;2.53;;;;;;;;;;5004046;28;20041;-60
2021/08/17 07:01:39;;;;;;;7.78;2.58;;;;;;;;;;5003690;28;20107;-59
2021/08/17 07:04:07;;;;;;;8.02;2.97;;;;;;;;;;4995123;28;21121;-59
2021/08/17 07:06:35;;;;;;;5.95;2.70;;;;;;;;;;4987709;28;20032;-59
2021/08/17 07:09:02;;;;;;;13.75;3.10;;;;;;;;;;4972496;28;20037;-60
2021/08/17 07:11:32;;;;;;;6.50;2.30;;;;;;;;;;5002513;28;20026;-61
2021/08/17 07:14:00;;;;;;;11.02;2.63;;;;;;;;;;4987050;28;20026;-59
2021/08/17 07:16:27;;;;;;;8.35;2.80;;;;;;;;;;5002663;28;20021;-59
2021/08/17 07:18:55;;;;;;;7.28;2.70;;;;;;;;;;4986802;28;20055;-60
2021/08/17 07:21:23;;;;;;;4.93;2.40;;;;;;;;;;4988412;28;20033;-61
2021/08/17 07:23:48;;;;;;;5.97;2.45;;;;;;;;;;4986738;28;22113;-63
2021/08/17 07:26:14;;;;;;;6.53;2.80;;;;;;;;;;4982493;28;20135;-61
2021/08/17 07:28:42;;;;;;;7.60;2.50;;;;;;;;;;5003404;28;20095;-61
2021/08/17 07:31:10;;;;;;;6.22;2.17;;;;;;;;;;5003023;28;22075;-62
2021/08/17 07:33:39;;;;;;;8.80;2.45;;;;;;;;;;4986692;28;20536;-62
2021/08/17 07:36:05;;;;;;;8.43;2.88;;;;;;;;;;4987971;28;20758;-62
2021/08/17 07:38:30;;;;;;;16.52;2.20;;;;;;;;;;5002918;28;20051;-62
2021/08/17 07:40:56;;;;;;;4.88;2.20;;;;;;;;;;4986563;28;20044;-63
2021/08/17 07:43:24;;;;;;;12.35;2.72;;;;;;;;;;4985680;28;20091;-62
2021/08/17 07:45:49;;;;;;;7.85;2.03;;;;;;;;;;4985980;28;20035;-62
2021/08/17 07:48:18;;;;;;;9.43;2.70;;;;;;;;;;5002560;28;20053;-62
2021/08/17 07:50:45;;;;;;;11.27;2.88;;;;;;;;;;4999996;28;20041;-63
2021/08/17 07:53:12;;;;;;;8.43;2.85;;;;;;;;;;4987244;28;20040;-64
2021/08/17 07:55:43;;;;;;;7.80;2.25;;;;;;;;;;4986804;28;20030;-62
2021/08/17 07:58:09;;;;;;;5.57;2.55;;;;;;;;;;4984856;28;20060;-61
2021/08/17 08:00:35;;;;;;;7.07;2.10;;;;;;;;;;5002374;28;20022;-62
2021/08/17 08:03:00;;;;;;;7.75;2.85;;;;;;;;;;4974010;28;20036;-62
2021/08/17 08:05:28;;;;;;;12.98;2.85;;;;;;;;;;4985697;28;20116;-64
2021/08/17 08:07:56;;;;;;;18.23;2.65;;;;;;;;;;4993504;28;20087;-63
2021/08/17 08:10:24;;;;;;;3.88;2.35;;;;;;;;;;5001234;28;20071;-62
2021/08/17 08:12:51;;;;;;;9.80;2.72;;;;;;;;;;4970922;28;20531;-62
2021/08/17 08:15:18;;;;;;;8.45;2.67;;;;;;;;;;4985570;28;20196;-61
2021/08/17 08:17:43;;;;;;;13.75;2.90;;;;;;;;;;5004023;28;20288;-62
2021/08/17 08:20:12;;;;;;;8.15;2.60;;;;;;;;;;4988607;28;21388;-62
2021/08/17 08:22:40;;;;;;;7.53;2.72;;;;;;;;;;4985827;28;20037;-61
2021/08/17 08:25:08;;;;;;;9.02;2.80;;;;;;;;;;4986310;28;20029;-61
2021/08/17 08:27:34;;;;;;;5.70;2.58;;;;;;;;;;4994165;28;20442;-61
2021/08/17 08:30:02;;;;;;;11.65;3.38;;;;;;;;;;5003149;28;20030;-62
2021/08/17 08:32:30;;;;;;;11.38;3.33;;;;;;;;;;5000089;28;20030;-64
2021/08/17 08:34:58;;;;;;;7.32;2.85;;;;;;;;;;4970201;28;20037;-63
2021/08/17 08:37:23;;;;;;;11.52;2.92;;;;;;;;;;4980472;28;20034;-64
2021/08/17 08:39:52;;;;;;;13.52;2.97;;;;;;;;;;5021197;28;20880;-63
2021/08/17 08:42:20;;;;;;;9.57;2.90;;;;;;;;;;4992884;28;20029;-62
2021/08/17 08:44:45;;;;;;;7.10;3.00;;;;;;;;;;5027236;28;20484;-63
2021/08/17 08:47:10;;;;;;;13.27;3.50;;;;;;;;;;5003406;28;20041;-64
2021/08/17 08:49:37;;;;;;;8.48;3.22;;;;;;;;;;5012203;28;20046;-63
2021/08/17 08:52:07;;;;;;;10.23;2.80;;;;;;;;;;5023932;28;20033;-63
2021/08/17 08:54:33;;;;;;;8.60;2.70;;;;;;;;;;5019874;28;20406;-63
2021/08/17 08:56:59;;;;;;;17.48;3.47;;;;;;;;;;5026241;28;20052;-61
2021/08/17 08:59:29;;;;;;;12.35;3.17;;;;;;;;;;5010467;28;20025;-62
2021/08/17 09:02:04;;;;;;;14.68;3.60;;;;;;;;;;5005144;28;20459;-64
2021/08/17 09:04:30;;;;;;;11.77;3.85;;;;;;;;;;5007170;28;20083;-64
2021/08/17 09:06:55;;;;;;;9.50;3.50;;;;;;;;;;5007869;28;20025;-62
2021/08/17 09:09:23;;;;;;;15.85;4.28;;;;;;;;;;5008444;28;20044;-64
2021/08/17 09:11:51;;;;;;;8.05;3.30;;;;;;;;;;5019162;28;20017;-62
2021/08/17 09:14:17;;;;;;;7.32;3.53;;;;;;;;;;5007012;28;20038;-62
2021/08/17 09:16:42;;;;;;;11.32;3.63;;;;;;;;;;5023458;28;20034;-62
2021/08/17 09:19:27;;;;;;;12.40;3.40;;;;;;;;;;4993392;28;20175;-63
2021/08/17 09:21:54;;;;;;;9.95;3.78;;;;;;;;;;5027847;28;20041;-63
2021/08/17 09:24:27;;;;;;;18.27;4.38;;;;;;;;;;5012039;28;20112;-63
2021/08/17 09:26:54;;;;;;;13.97;3.87;;;;;;;;;;5011485;28;20033;-62
2021/08/17 09:29:26;;;;;;;10.85;3.67;;;;;;;;;;5028512;28;20030;-65
2021/08/17 09:31:52;;;;;;;9.32;3.90;;;;;;;;;;5009335;28;20384;-62
2021/08/17 09:34:18;;;;;;;10.20;3.75;;;;;;;;;;4995658;28;20473;-61
2021/08/17 09:36:45;;;;;;;13.75;4.72;;;;;;;;;;5010459;28;20079;-62
2021/08/17 09:39:32;;;;;;;11.52;4.05;;;;;;;;;;5014523;28;20021;-63
2021/08/17 09:41:57;;;;;;;;;;;;;;;;;;5026118;28;20025;-61
2021/08/17 09:44:23;;;;;;;14.52;4.82;;;;;;;;;;5012191;28;20410;-62
2021/08/17 09:46:54;;;;;;;12.25;4.90;;;;;;;;;;4989201;28;20358;-62
2021/08/17 09:49:30;;;;;;;13.52;5.13;;;;;;;;;;5009131;28;20501;-62
2021/08/17 09:52:11;;;;;;;16.88;5.25;;;;;;;;;;5028213;28;20030;-63
2021/08/17 09:54:38;;;;;;;12.18;4.75;;;;;;;;;;5011909;28;20036;-63
2021/08/17 09:57:04;;;;;;;14.27;5.20;;;;;;;;;;5007837;28;20100;-62
2021/08/17 09:59:31;;;;;;;11.85;4.78;;;;;;;;;;4995681;28;20107;-62
2021/08/17 10:02:01;;;;;;;10.68;4.95;;;;;;;;;;5026856;28;20021;-62
2021/08/17 10:04:26;;;;;;;13.48;4.68;;;;;;;;;;5012087;28;20060;-62
2021/08/17 10:06:56;;;;;;;12.55;4.65;;;;;;;;;;5010731;28;20414;-63
2021/08/17 10:09:23;;;;;;;12.07;4.97;;;;;;;;;;5025943;28;20018;-62
2021/08/17 10:11:48;;;;;;;7.72;4.40;;;;;;;;;;5024981;28;20025;-62
2021/08/17 10:14:14;;;;;;;13.77;4.72;;;;;;;;;;5027833;28;20036;-62
2021/08/17 10:16:42;;;;;;;12.55;4.85;;;;;;;;;;5028839;28;20032;-63
2021/08/17 10:19:17;;;;;;;9.25;4.25;;;;;;;;;;5023640;28;20025;-61
2021/08/17 10:21:45;;;;;;;;;;;;;;;;;;5028271;28;20026;-62
2021/08/17 10:24:39;;;;;;;11.63;4.35;;;;;;;;;;5025495;28;20291;-60
2021/08/17 10:27:26;;;;;;;11.30;4.75;;;;;;;;;;5026487;28;20037;-63
2021/08/17 10:30:10;;;;;;;10.07;4.40;;;;;;;;;;5011330;28;20028;-63
2021/08/17 10:32:36;;;;;;;10.18;4.45;;;;;;;;;;5009740;28;20029;-62
2021/08/17 10:35:05;;;;;;;7.28;4.20;;;;;;;;;;5025884;28;20041;-63
2021/08/17 10:37:30;;;;;;;10.68;3.97;;;;;;;;;;5009037;28;20045;-62
2021/08/17 10:39:58;;;;;;;6.07;3.80;;;;;;;;;;5027335;28;20028;-62
2021/08/17 10:42:29;;;;;;;12.98;4.28;;;;;;;;;;4994073;28;20045;-61
2021/08/17 10:45:14;;;;;;;9.13;4.32;;;;;;;;;;5008593;28;20173;-63
2021/08/17 10:47:39;;;;;;;10.90;4.28;;;;;;;;;;5027740;28;20042;-64
2021/08/17 10:50:08;;;;;;;8.43;3.95;;;;;;;;;;4990463;28;20477;-61
2021/08/17 10:53:05;;;;;;;;;;;;;;;;;;;;;
2021/08/17 10:55:41;;;;;;;12.02;4.75;;;;;;;;;;5000033;28;20042;-64
2021/08/17 11:01:58;;;;;;;7.90;4.07;;;;;;;;;;4997213;28;20048;-63
2021/08/17 11:04:38;;;;;;;9.93;4.03;;;;;;;;;;5008823;28;20044;-62
2021/08/17 11:14:25;;;;;;;8.65;4.10;;;;;;;;;;5004435;28;20536;-62
2021/08/17 11:17:18;;;;;;;10.38;4.50;;;;;;;;;;4990405;28;20038;-62
2021/08/17 11:19:51;;;;;;;9.63;4.03;;;;;;;;;;4987133;28;20156;-60
2021/08/17 11:22:29;;;;;;;18.25;4.90;;;;;;;;;;4969007;28;20030;-63
2021/08/17 11:25:03;;;;;;;13.32;3.95;;;;;;;;;;4968767;28;20034;-61
2021/08/17 11:27:43;;;;;;;11.68;4.32;;;;;;;;;;4990748;28;20044;-61
2021/08/17 11:30:12;;;;;;;11.02;3.88;;;;;;;;;;4987670;28;20025;-62
2021/08/17 11:32:43;;;;;;;11.20;4.00;;;;;;;;;;4972631;28;20037;-60
2021/08/17 11:35:35;;;;;;;12.18;4.03;;;;;;;;;;4994853;28;21325;-63
2021/08/17 11:38:00;;;;;;;9.05;3.50;;;;;;;;;;4992749;28;20038;-61
2021/08/17 11:40:30;;;;;;;10.00;3.72;;;;;;;;;;4988255;28;20021;-62
2021/08/17 11:42:56;;;;;;;11.68;3.75;;;;;;;;;;4973464;28;20109;-63
2021/08/17 11:45:22;;;;;;;9.70;3.67;;;;;;;;;;4995981;28;20109;-63
2021/08/17 11:47:49;;;;;;;13.88;4.43;;;;;;;;;;4990280;28;20115;-64
2021/08/17 11:50:21;;;;;;;7.07;4.18;;;;;;;;;;5020450;28;20413;-62
2021/08/17 11:52:52;;;;;;;7.03;3.25;;;;;;;;;;5028469;28;20030;-62
2021/08/17 11:55:17;;;;;;;7.38;3.67;;;;;;;;;;5007985;28;20136;-63
2021/08/17 11:57:50;;;;;;;9.20;3.33;;;;;;;;;;5025521;28;20122;-62
2021/08/17 12:00:18;;;;;;;;;;;;;;;;;;5024167;28;20424;-62
2021/08/17 12:02:49;;;;;;;8.90;3.47;;;;;;;;;;5027163;28;20373;-62
2021/08/17 12:05:15;;;;;;;7.53;4.13;;;;;;;;;;5025338;28;20279;-63
2021/08/17 12:07:44;;;;;;;12.50;3.97;;;;;;;;;;5009076;28;20108;-62
2021/08/17 12:10:13;;;;;;;9.32;3.28;;;;;;;;;;5024197;28;20029;-61
2021/08/17 12:12:51;;;;;;;8.52;3.47;;;;;;;;;;5024657;28;20099;-62
2021/08/17 12:15:17;;;;;;;5.50;2.72;;;;;;;;;;5007405;28;20580;-61
2021/08/17 12:17:58;;;;;;;9.13;3.60;;;;;;;;;;5024550;28;20102;-62
2021/08/17 12:20:24;;;;;;;9.63;4.07;;;;;;;;;;5024172;28;20040;-62
2021/08/17 12:22:52;;;;;;;11.52;3.95;;;;;;;;;;5006177;28;20080;-61
2021/08/17 12:25:25;;;;;;;8.82;3.58;;;;;;;;;;5004410;28;20124;-62
2021/08/17 12:27:55;;;;;;;11.73;3.90;;;;;;;;;;5009075;28;20468;-61
2021/08/17 12:30:25;;;;;;;9.82;3.47;;;;;;;;;;5028807;28;20491;-62
2021/08/17 12:32:54;;;;;;;9.63;2.97;;;;;;;;;;5007744;28;20044;-62
2021/08/17 12:35:26;;;;;;;10.38;3.33;;;;;;;;;;5025496;28;20037;-63
2021/08/17 12:37:51;;;;;;;11.05;3.83;;;;;;;;;;5009273;28;20162;-62
2021/08/17 12:40:20;;;;;;;10.45;2.90;;;;;;;;;;5001369;28;20021;-61
2021/08/17 12:42:48;;;;;;;9.30;2.75;;;;;;;;;;5003033;28;20048;-60
2021/08/17 12:45:32;;;;;;;5.90;2.92;;;;;;;;;;5001474;28;20060;-62
2021/08/17 12:48:02;;;;;;;11.90;3.60;;;;;;;;;;5000253;28;20033;-64
2021/08/17 12:50:40;;;;;;;5.00;2.67;;;;;;;;;;5001856;28;20041;-62
2021/08/17 12:53:19;;;;;;;7.38;2.25;;;;;;;;;;5001642;28;20025;-62
2021/08/17 12:55:47;;;;;;;7.00;2.58;;;;;;;;;;4981230;28;20037;-64
2021/08/17 12:58:15;;;;;;;4.90;2.83;;;;;;;;;;5003242;28;20033;-63
2021/08/17 13:00:45;;;;;;;6.10;2.35;;;;;;;;;;5004772;28;20029;-64
2021/08/17 13:03:13;;;;;;;8.60;2.15;;;;;;;;;;4994187;28;20037;-62
2021/08/17 13:05:38;;;;;;;5.88;2.42;;;;;;;;;;5004400;28;20025;-63
2021/08/17 13:08:06;;;;;;;7.05;2.30;;;;;;;;;;4990958;28;22083;-64
2021/08/17 13:10:32;;;;;;;7.53;2.78;;;;;;;;;;5002837;28;20065;-63
2021/08/17 13:12:58;;;;;;;6.93;2.20;;;;;;;;;;5005161;28;20408;-63
2021/08/17 13:15:26;;;;;;;7.20;2.40;;;;;;;;;;5003773;28;20029;-62
2021/08/17 13:17:55;;;;;;;6.90;2.22;;;;;;;;;;5005703;28;20040;-63
2021/08/17 13:20:23;;;;;;;7.75;2.17;;;;;;;;;;5002978;28;20049;-63
2021/08/17 13:22:50;;;;;;;2.47;1.50;;;;;;;;;;5003451;28;20020;-63
2021/08/17 13:25:17;;;;;;;3.95;1.98;;;;;;;;;;4991007;28;20120;-63
2021/08/17 13:27:42;;;;;;;7.25;2.22;;;;;;;;;;5005883;28;20037;-63
2021/08/17 13:30:08;;;;;;;8.05;2.17;;;;;;;;;;4985918;28;20045;-62
2021/08/17 13:32:34;;;;;;;6.90;1.90;;;;;;;;;;4988313;28;20037;-63
2021/08/17 13:35:03;;;;;;;6.18;2.17;;;;;;;;;;5002667;28;20029;-63
2021/08/17 13:37:28;;;;;;;6.60;2.00;;;;;;;;;;5005193;28;20599;-63
2021/08/17 13:39:54;;;;;;;5.35;1.85;;;;;;;;;;5000163;28;20048;-62
2021/08/17 13:42:21;;;;;;;3.65;2.13;;;;;;;;;;5006452;28;22027;-65
2021/08/17 13:44:47;;;;;;;3.72;1.98;;;;;;;;;;4989791;28;20030;-63
2021/08/17 13:47:13;;;;;;;6.10;1.90;;;;;;;;;;5004837;28;20039;-62
2021/08/17 13:49:40;;;;;;;4.47;2.13;;;;;;;;;;4988745;28;20046;-63
2021/08/17 13:52:14;;;;;;;4.25;2.00;;;;;;;;;;4956885;28;20575;-63
2021/08/17 13:57:50;;;;;;;2.53;1.63;;;;;;;;;;4988522;28;20053;-65
2021/08/17 14:00:17;;;;;;;5.78;2.25;;;;;;;;;;5003457;28;20049;-64
2021/08/17 14:02:48;;;;;;;4.10;1.65;;;;;;;;;;4971298;28;20128;-61
2021/08/17 14:05:13;;;;;;;5.10;1.98;;;;;;;;;;5001877;28;20956;-62
2021/08/17 14:07:43;;;;;;;3.58;1.60;;;;;;;;;;5005429;28;20033;-64
2021/08/17 14:13:46;;;;;;;8.38;1.77;;;;;;;;;;4986706;28;20732;-62
2021/08/17 14:16:33;;;;;;;3.53;1.60;;;;;;;;;;4997933;28;20037;-63
2021/08/17 14:19:03;;;;;;;5.68;2.13;;;;;;;;;;4961435;28;20037;-63
2021/08/17 14:25:17;;;;;;;2.78;1.65;;;;;;;;;;4989879;28;21046;-62
2021/08/17 14:27:47;;;;;;;2.53;1.20;;;;;;;;;;4992177;28;20055;-61
2021/08/17 14:30:42;;;;;;;3.88;1.70;;;;;;;;;;4983797;28;20046;-61
2021/08/17 14:33:13;;;;;;;5.60;2.35;;;;;;;;;;4981806;28;20597;-63
2021/08/17 14:35:50;;;;;;;3.72;1.92;;;;;;;;;;4979251;28;20056;-63
2021/08/17 14:38:27;;;;;;;;;;;;;;;;;;4993160;28;20033;-61
2021/08/17 14:41:20;;;;;;;3.90;1.88;;;;;;;;;;4995044;28;19917;-62
2021/08/17 14:43:49;;;;;;;1.98;1.20;;;;;;;;;;4980402;28;20267;-63
2021/08/17 14:46:19;;;;;;;4.10;1.75;;;;;;;;;;4977004;28;20042;-62
2021/08/17 14:48:49;;;;;;;3.75;1.67;;;;;;;;;;4994062;28;20050;-61
2021/08/17 14:51:19;;;;;;;5.15;2.08;;;;;;;;;;4977509;28;20092;-63
2021/08/17 14:53:47;;;;;;;3.67;1.80;;;;;;;;;;4996599;28;20478;-62
2021/08/17 14:56:17;;;;;;;3.65;1.65;;;;;;;;;;4997251;28;20034;-62
2021/08/17 14:58:44;;;;;;;4.30;1.95;;;;;;;;;;4976510;28;21993;-62
2021/08/17 15:01:29;;;;;;;2.13;1.48;;;;;;;;;;4996358;28;20060;-61
2021/08/17 15:03:57;;;;;;;5.80;1.80;;;;;;;;;;4981783;28;20041;-63
2021/08/17 15:06:53;;;;;;;;;;;;;;;;;;;;;
2021/08/17 15:09:20;;;;;;;5.15;1.90;;;;;;;;;;4988858;28;20052;-62